sensor_id;sensor_type;location;lat;lon;timestamp;P1;durP1;ratioP1;P2;durP2;ratioP2
3801;SDS011;1916;51.798;12.246;2023-01-24T00:00:11;23.03;;;15.60;;
3801;SDS011;1916;51.798;12.246;2023-01-24T00:02:13;24.23;;;13.40;;
3801;SDS011;1916;51.798;12.246;2023-01-24T00:04:15;24.03;;;13.97;;
3801;SDS011;1916;51.798;12.246;2023-01-24T00:06:17;23.03;;;14.40;;
3801;SDS011;1916;51.798;12.246;2023-01-24T00:08:20;24.60;;;14.37;;
3801;SDS011;1916;51.798;12.246;2023-01-24T00:10:24;22.00;;;13.37;;
3801;SDS011;1916;51.798;12.246;2023-01-24T00:12:27;22.53;;;13.67;;
3801;SDS011;1916;51.798;12.246;2023-01-24T00:14:30;25.63;;;14.40;;
3801;SDS011;1916;51.798;12.246;2023-01-24T00:16:32;20.90;;;13.60;;
3801;SDS011;1916;51.798;12.246;2023-01-24T00:18:34;28.23;;;14.33;;
3801;SDS011;1916;51.798;12.246;2023-01-24T00:20:36;26.77;;;15.43;;
3801;SDS011;1916;51.798;12.246;2023-01-24T00:22:39;28.87;;;15.53;;
3801;SDS011;1916;51.798;12.246;2023-01-24T00:24:40;22.30;;;12.83;;
3801;SDS011;1916;51.798;12.246;2023-01-24T00:26:42;21.60;;;14.00;;
3801;SDS011;1916;51.798;12.246;2023-01-24T00:28:45;19.87;;;13.03;;
3801;SDS011;1916;51.798;12.246;2023-01-24T00:30:47;24.00;;;12.97;;
3801;SDS011;1916;51.798;12.246;2023-01-24T00:32:49;24.50;;;13.80;;
3801;SDS011;1916;51.798;12.246;2023-01-24T00:34:51;22.70;;;13.00;;
3801;SDS011;1916;51.798;12.246;2023-01-24T00:36:53;22.23;;;14.57;;
3801;SDS011;1916;51.798;12.246;2023-01-24T00:38:55;24.63;;;14.50;;
3801;SDS011;1916;51.798;12.246;2023-01-24T00:41:00;22.80;;;13.27;;
3801;SDS011;1916;51.798;12.246;2023-01-24T00:43:02;29.17;;;13.77;;
3801;SDS011;1916;51.798;12.246;2023-01-24T00:45:04;21.60;;;12.70;;
3801;SDS011;1916;51.798;12.246;2023-01-24T00:47:07;25.33;;;13.47;;
3801;SDS011;1916;51.798;12.246;2023-01-24T00:49:09;24.17;;;14.63;;
3801;SDS011;1916;51.798;12.246;2023-01-24T00:51:11;23.00;;;14.93;;
3801;SDS011;1916;51.798;12.246;2023-01-24T00:53:14;21.27;;;12.97;;
3801;SDS011;1916;51.798;12.246;2023-01-24T00:55:16;22.47;;;14.00;;
3801;SDS011;1916;51.798;12.246;2023-01-24T00:57:18;23.00;;;13.10;;
3801;SDS011;1916;51.798;12.246;2023-01-24T00:59:20;19.43;;;11.97;;
3801;SDS011;1916;51.798;12.246;2023-01-24T01:01:22;20.80;;;11.87;;
3801;SDS011;1916;51.798;12.246;2023-01-24T01:03:24;25.47;;;13.47;;
3801;SDS011;1916;51.798;12.246;2023-01-24T01:05:27;20.90;;;12.07;;
3801;SDS011;1916;51.798;12.246;2023-01-24T01:07:29;20.00;;;12.57;;
3801;SDS011;1916;51.798;12.246;2023-01-24T01:09:31;24.20;;;13.00;;
3801;SDS011;1916;51.798;12.246;2023-01-24T01:11:33;20.70;;;13.10;;
3801;SDS011;1916;51.798;12.246;2023-01-24T01:13:35;25.37;;;14.17;;
3801;SDS011;1916;51.798;12.246;2023-01-24T01:15:37;23.70;;;12.27;;
3801;SDS011;1916;51.798;12.246;2023-01-24T01:17:40;22.27;;;12.90;;
3801;SDS011;1916;51.798;12.246;2023-01-24T01:19:42;22.40;;;12.47;;
3801;SDS011;1916;51.798;12.246;2023-01-24T01:21:44;22.70;;;11.80;;
3801;SDS011;1916;51.798;12.246;2023-01-24T01:23:46;21.30;;;12.20;;
3801;SDS011;1916;51.798;12.246;2023-01-24T01:25:49;22.30;;;13.40;;
3801;SDS011;1916;51.798;12.246;2023-01-24T01:27:51;22.67;;;12.43;;
3801;SDS011;1916;51.798;12.246;2023-01-24T01:29:53;24.00;;;12.83;;
3801;SDS011;1916;51.798;12.246;2023-01-24T01:31:55;25.97;;;13.20;;
3801;SDS011;1916;51.798;12.246;2023-01-24T01:33:57;24.43;;;14.90;;
3801;SDS011;1916;51.798;12.246;2023-01-24T01:35:59;21.30;;;12.90;;
3801;SDS011;1916;51.798;12.246;2023-01-24T01:38:02;21.10;;;11.67;;
3801;SDS011;1916;51.798;12.246;2023-01-24T01:40:04;25.30;;;14.00;;
3801;SDS011;1916;51.798;12.246;2023-01-24T01:42:06;21.50;;;12.90;;
3801;SDS011;1916;51.798;12.246;2023-01-24T01:44:22;22.20;;;12.67;;
3801;SDS011;1916;51.798;12.246;2023-01-24T01:46:43;20.47;;;12.87;;
3801;SDS011;1916;51.798;12.246;2023-01-24T01:48:48;18.47;;;11.47;;
3801;SDS011;1916;51.798;12.246;2023-01-24T01:50:56;25.83;;;14.47;;
3801;SDS011;1916;51.798;12.246;2023-01-24T01:53:04;20.67;;;12.30;;
3801;SDS011;1916;51.798;12.246;2023-01-24T01:55:13;19.30;;;12.40;;
3801;SDS011;1916;51.798;12.246;2023-01-24T01:57:20;20.70;;;11.93;;
3801;SDS011;1916;51.798;12.246;2023-01-24T01:59:26;20.30;;;11.87;;
3801;SDS011;1916;51.798;12.246;2023-01-24T02:01:29;21.60;;;12.90;;
3801;SDS011;1916;51.798;12.246;2023-01-24T02:03:35;23.70;;;13.40;;
3801;SDS011;1916;51.798;12.246;2023-01-24T02:05:40;20.43;;;13.63;;
3801;SDS011;1916;51.798;12.246;2023-01-24T02:07:59;23.87;;;13.37;;
3801;SDS011;1916;51.798;12.246;2023-01-24T02:10:04;23.10;;;13.67;;
3801;SDS011;1916;51.798;12.246;2023-01-24T02:12:09;21.50;;;14.37;;
3801;SDS011;1916;51.798;12.246;2023-01-24T02:14:14;21.30;;;12.43;;
3801;SDS011;1916;51.798;12.246;2023-01-24T02:16:37;21.80;;;13.30;;
3801;SDS011;1916;51.798;12.246;2023-01-24T02:18:40;20.20;;;11.93;;
3801;SDS011;1916;51.798;12.246;2023-01-24T02:20:46;20.43;;;13.37;;
3801;SDS011;1916;51.798;12.246;2023-01-24T02:23:07;17.77;;;13.13;;
3801;SDS011;1916;51.798;12.246;2023-01-24T02:25:36;20.33;;;12.77;;
3801;SDS011;1916;51.798;12.246;2023-01-24T02:27:43;22.73;;;12.57;;
3801;SDS011;1916;51.798;12.246;2023-01-24T02:29:46;24.20;;;13.30;;
3801;SDS011;1916;51.798;12.246;2023-01-24T02:31:59;21.40;;;13.67;;
3801;SDS011;1916;51.798;12.246;2023-01-24T02:34:02;22.27;;;13.10;;
3801;SDS011;1916;51.798;12.246;2023-01-24T02:38:30;21.53;;;12.30;;
3801;SDS011;1916;51.798;12.246;2023-01-24T02:40:33;23.67;;;13.70;;
3801;SDS011;1916;51.798;12.246;2023-01-24T02:42:37;21.73;;;12.63;;
3801;SDS011;1916;51.798;12.246;2023-01-24T02:44:42;22.67;;;13.20;;
3801;SDS011;1916;51.798;12.246;2023-01-24T02:46:45;22.27;;;14.07;;
3801;SDS011;1916;51.798;12.246;2023-01-24T02:48:49;23.77;;;12.73;;
3801;SDS011;1916;51.798;12.246;2023-01-24T02:50:52;22.73;;;12.50;;
3801;SDS011;1916;51.798;12.246;2023-01-24T02:53:13;25.93;;;14.23;;
3801;SDS011;1916;51.798;12.246;2023-01-24T02:55:34;21.97;;;12.87;;
3801;SDS011;1916;51.798;12.246;2023-01-24T02:57:58;22.87;;;13.83;;
3801;SDS011;1916;51.798;12.246;2023-01-24T03:00:11;21.10;;;14.00;;
3801;SDS011;1916;51.798;12.246;2023-01-24T03:02:14;22.57;;;13.40;;
3801;SDS011;1916;51.798;12.246;2023-01-24T03:04:16;26.87;;;14.43;;
3801;SDS011;1916;51.798;12.246;2023-01-24T03:06:20;22.27;;;12.93;;
3801;SDS011;1916;51.798;12.246;2023-01-24T03:08:30;21.90;;;14.23;;
3801;SDS011;1916;51.798;12.246;2023-01-24T03:10:35;24.23;;;13.90;;
3801;SDS011;1916;51.798;12.246;2023-01-24T03:12:37;21.27;;;12.17;;
3801;SDS011;1916;51.798;12.246;2023-01-24T03:14:58;23.97;;;13.20;;
3801;SDS011;1916;51.798;12.246;2023-01-24T03:17:18;23.70;;;11.93;;
3801;SDS011;1916;51.798;12.246;2023-01-24T03:19:39;25.33;;;14.57;;
3801;SDS011;1916;51.798;12.246;2023-01-24T03:22:00;23.67;;;13.37;;
3801;SDS011;1916;51.798;12.246;2023-01-24T03:24:21;25.83;;;13.90;;
3801;SDS011;1916;51.798;12.246;2023-01-24T03:26:42;24.40;;;13.83;;
3801;SDS011;1916;51.798;12.246;2023-01-24T03:29:03;24.10;;;13.10;;
3801;SDS011;1916;51.798;12.246;2023-01-24T03:31:24;27.10;;;14.40;;
3801;SDS011;1916;51.798;12.246;2023-01-24T03:33:44;21.83;;;13.33;;
3801;SDS011;1916;51.798;12.246;2023-01-24T03:36:05;22.60;;;12.63;;
3801;SDS011;1916;51.798;12.246;2023-01-24T03:38:10;20.93;;;12.83;;
3801;SDS011;1916;51.798;12.246;2023-01-24T03:40:30;25.57;;;14.17;;
3801;SDS011;1916;51.798;12.246;2023-01-24T03:42:32;23.60;;;12.93;;
3801;SDS011;1916;51.798;12.246;2023-01-24T03:44:35;24.00;;;13.10;;
3801;SDS011;1916;51.798;12.246;2023-01-24T03:46:37;21.30;;;13.53;;
3801;SDS011;1916;51.798;12.246;2023-01-24T03:48:44;25.47;;;13.80;;
3801;SDS011;1916;51.798;12.246;2023-01-24T03:50:47;22.97;;;14.47;;
3801;SDS011;1916;51.798;12.246;2023-01-24T03:53:10;22.50;;;13.40;;
3801;SDS011;1916;51.798;12.246;2023-01-24T03:55:14;26.43;;;15.10;;
3801;SDS011;1916;51.798;12.246;2023-01-24T03:57:18;20.37;;;13.63;;
3801;SDS011;1916;51.798;12.246;2023-01-24T03:59:20;24.80;;;14.13;;
3801;SDS011;1916;51.798;12.246;2023-01-24T04:01:22;23.87;;;13.33;;
3801;SDS011;1916;51.798;12.246;2023-01-24T04:03:47;23.63;;;14.20;;
3801;SDS011;1916;51.798;12.246;2023-01-24T04:05:50;25.63;;;14.33;;
3801;SDS011;1916;51.798;12.246;2023-01-24T04:07:55;24.47;;;13.77;;
3801;SDS011;1916;51.798;12.246;2023-01-24T04:09:58;22.50;;;14.00;;
3801;SDS011;1916;51.798;12.246;2023-01-24T04:12:01;27.30;;;14.37;;
3801;SDS011;1916;51.798;12.246;2023-01-24T04:14:03;23.23;;;14.00;;
3801;SDS011;1916;51.798;12.246;2023-01-24T04:16:08;28.87;;;16.10;;
3801;SDS011;1916;51.798;12.246;2023-01-24T04:18:22;29.50;;;16.83;;
3801;SDS011;1916;51.798;12.246;2023-01-24T04:20:25;31.37;;;17.97;;
3801;SDS011;1916;51.798;12.246;2023-01-24T04:22:29;30.33;;;15.37;;
3801;SDS011;1916;51.798;12.246;2023-01-24T04:24:34;25.50;;;15.13;;
3801;SDS011;1916;51.798;12.246;2023-01-24T04:26:36;28.53;;;16.47;;
3801;SDS011;1916;51.798;12.246;2023-01-24T04:28:41;28.13;;;15.37;;
3801;SDS011;1916;51.798;12.246;2023-01-24T04:30:43;25.97;;;16.13;;
3801;SDS011;1916;51.798;12.246;2023-01-24T04:33:00;29.43;;;15.17;;
3801;SDS011;1916;51.798;12.246;2023-01-24T04:35:03;23.87;;;14.70;;
3801;SDS011;1916;51.798;12.246;2023-01-24T04:37:23;23.10;;;13.40;;
3801;SDS011;1916;51.798;12.246;2023-01-24T04:39:26;29.20;;;13.97;;
3801;SDS011;1916;51.798;12.246;2023-01-24T04:41:36;29.03;;;16.97;;
3801;SDS011;1916;51.798;12.246;2023-01-24T04:43:38;29.77;;;16.00;;
3801;SDS011;1916;51.798;12.246;2023-01-24T04:45:40;26.63;;;14.30;;
3801;SDS011;1916;51.798;12.246;2023-01-24T04:47:46;35.37;;;17.43;;
3801;SDS011;1916;51.798;12.246;2023-01-24T04:49:48;36.90;;;18.80;;
3801;SDS011;1916;51.798;12.246;2023-01-24T04:51:53;30.93;;;18.00;;
3801;SDS011;1916;51.798;12.246;2023-01-24T04:54:00;27.33;;;16.40;;
3801;SDS011;1916;51.798;12.246;2023-01-24T04:56:04;32.37;;;17.63;;
3801;SDS011;1916;51.798;12.246;2023-01-24T04:58:07;23.60;;;13.93;;
3801;SDS011;1916;51.798;12.246;2023-01-24T05:00:09;22.27;;;14.30;;
3801;SDS011;1916;51.798;12.246;2023-01-24T05:02:12;24.17;;;14.10;;
3801;SDS011;1916;51.798;12.246;2023-01-24T05:04:17;21.83;;;13.90;;
3801;SDS011;1916;51.798;12.246;2023-01-24T05:06:19;25.03;;;15.87;;
3801;SDS011;1916;51.798;12.246;2023-01-24T05:08:21;22.10;;;14.83;;
3801;SDS011;1916;51.798;12.246;2023-01-24T05:10:23;20.93;;;14.13;;
3801;SDS011;1916;51.798;12.246;2023-01-24T05:12:26;20.20;;;14.03;;
3801;SDS011;1916;51.798;12.246;2023-01-24T05:14:32;22.47;;;13.50;;
3801;SDS011;1916;51.798;12.246;2023-01-24T05:16:34;24.00;;;14.47;;
3801;SDS011;1916;51.798;12.246;2023-01-24T05:18:36;31.40;;;13.80;;
3801;SDS011;1916;51.798;12.246;2023-01-24T05:20:38;27.30;;;15.10;;
3801;SDS011;1916;51.798;12.246;2023-01-24T05:22:40;21.50;;;13.30;;
3801;SDS011;1916;51.798;12.246;2023-01-24T05:24:42;31.73;;;14.93;;
3801;SDS011;1916;51.798;12.246;2023-01-24T05:26:44;23.33;;;13.93;;
3801;SDS011;1916;51.798;12.246;2023-01-24T05:28:50;26.10;;;14.27;;
3801;SDS011;1916;51.798;12.246;2023-01-24T05:30:52;22.00;;;12.70;;
3801;SDS011;1916;51.798;12.246;2023-01-24T05:33:01;24.93;;;13.70;;
3801;SDS011;1916;51.798;12.246;2023-01-24T05:35:06;22.40;;;13.37;;
3801;SDS011;1916;51.798;12.246;2023-01-24T05:37:09;25.37;;;14.07;;
3801;SDS011;1916;51.798;12.246;2023-01-24T05:39:14;25.97;;;13.67;;
3801;SDS011;1916;51.798;12.246;2023-01-24T05:41:19;25.50;;;15.07;;
3801;SDS011;1916;51.798;12.246;2023-01-24T05:43:24;26.63;;;14.87;;
3801;SDS011;1916;51.798;12.246;2023-01-24T05:45:27;26.40;;;14.20;;
3801;SDS011;1916;51.798;12.246;2023-01-24T05:47:29;24.27;;;13.80;;
3801;SDS011;1916;51.798;12.246;2023-01-24T05:49:31;26.37;;;15.80;;
3801;SDS011;1916;51.798;12.246;2023-01-24T05:51:33;28.40;;;13.13;;
3801;SDS011;1916;51.798;12.246;2023-01-24T05:53:37;27.80;;;15.37;;
3801;SDS011;1916;51.798;12.246;2023-01-24T05:55:40;25.60;;;14.20;;
3801;SDS011;1916;51.798;12.246;2023-01-24T05:57:42;25.00;;;14.70;;
3801;SDS011;1916;51.798;12.246;2023-01-24T05:59:47;29.57;;;14.43;;
3801;SDS011;1916;51.798;12.246;2023-01-24T06:01:49;25.13;;;14.57;;
3801;SDS011;1916;51.798;12.246;2023-01-24T06:03:53;24.93;;;14.73;;
3801;SDS011;1916;51.798;12.246;2023-01-24T06:05:55;28.33;;;15.13;;
3801;SDS011;1916;51.798;12.246;2023-01-24T06:08:01;25.77;;;13.67;;
3801;SDS011;1916;51.798;12.246;2023-01-24T06:10:04;25.43;;;14.07;;
3801;SDS011;1916;51.798;12.246;2023-01-24T06:12:17;24.80;;;14.27;;
3801;SDS011;1916;51.798;12.246;2023-01-24T06:14:20;27.63;;;15.20;;
3801;SDS011;1916;51.798;12.246;2023-01-24T06:16:24;26.77;;;15.07;;
3801;SDS011;1916;51.798;12.246;2023-01-24T06:18:26;24.73;;;13.63;;
3801;SDS011;1916;51.798;12.246;2023-01-24T06:20:29;31.93;;;15.70;;
3801;SDS011;1916;51.798;12.246;2023-01-24T06:22:34;24.87;;;14.13;;
3801;SDS011;1916;51.798;12.246;2023-01-24T06:24:44;26.67;;;15.90;;
3801;SDS011;1916;51.798;12.246;2023-01-24T06:27:04;24.20;;;14.20;;
3801;SDS011;1916;51.798;12.246;2023-01-24T06:29:08;27.80;;;15.20;;
3801;SDS011;1916;51.798;12.246;2023-01-24T06:33:36;23.90;;;13.90;;
3801;SDS011;1916;51.798;12.246;2023-01-24T06:36:04;30.57;;;15.40;;
3801;SDS011;1916;51.798;12.246;2023-01-24T06:38:20;27.00;;;12.50;;
3801;SDS011;1916;51.798;12.246;2023-01-24T06:40:24;20.63;;;13.87;;
3801;SDS011;1916;51.798;12.246;2023-01-24T06:42:26;22.63;;;14.00;;
3801;SDS011;1916;51.798;12.246;2023-01-24T06:44:28;27.77;;;15.30;;
3801;SDS011;1916;51.798;12.246;2023-01-24T06:46:30;28.33;;;15.50;;
3801;SDS011;1916;51.798;12.246;2023-01-24T06:48:33;33.83;;;14.97;;
3801;SDS011;1916;51.798;12.246;2023-01-24T06:50:35;30.17;;;15.27;;
3801;SDS011;1916;51.798;12.246;2023-01-24T06:52:37;32.50;;;15.07;;
3801;SDS011;1916;51.798;12.246;2023-01-24T06:54:39;24.07;;;14.90;;
3801;SDS011;1916;51.798;12.246;2023-01-24T06:56:41;31.83;;;16.30;;
3801;SDS011;1916;51.798;12.246;2023-01-24T06:58:43;29.87;;;16.53;;
3801;SDS011;1916;51.798;12.246;2023-01-24T07:00:45;29.33;;;16.17;;
3801;SDS011;1916;51.798;12.246;2023-01-24T07:02:47;25.47;;;15.50;;
3801;SDS011;1916;51.798;12.246;2023-01-24T07:04:49;31.90;;;17.17;;
3801;SDS011;1916;51.798;12.246;2023-01-24T07:06:51;35.60;;;15.53;;
3801;SDS011;1916;51.798;12.246;2023-01-24T07:08:54;25.63;;;15.70;;
3801;SDS011;1916;51.798;12.246;2023-01-24T07:10:59;28.77;;;14.43;;
3801;SDS011;1916;51.798;12.246;2023-01-24T07:13:01;33.53;;;17.77;;
3801;SDS011;1916;51.798;12.246;2023-01-24T07:15:03;29.83;;;16.43;;
3801;SDS011;1916;51.798;12.246;2023-01-24T07:17:07;32.47;;;16.40;;
3801;SDS011;1916;51.798;12.246;2023-01-24T07:22:29;31.20;;;18.10;;
3801;SDS011;1916;51.798;12.246;2023-01-24T07:24:32;31.70;;;16.30;;
3801;SDS011;1916;51.798;12.246;2023-01-24T07:26:34;36.80;;;16.27;;
3801;SDS011;1916;51.798;12.246;2023-01-24T07:28:37;28.43;;;14.90;;
3801;SDS011;1916;51.798;12.246;2023-01-24T07:30:39;32.60;;;17.00;;
3801;SDS011;1916;51.798;12.246;2023-01-24T07:32:41;30.50;;;16.53;;
3801;SDS011;1916;51.798;12.246;2023-01-24T07:34:43;31.10;;;16.00;;
3801;SDS011;1916;51.798;12.246;2023-01-24T07:36:45;35.20;;;17.17;;
3801;SDS011;1916;51.798;12.246;2023-01-24T07:38:48;26.90;;;16.03;;
3801;SDS011;1916;51.798;12.246;2023-01-24T07:40:50;24.20;;;14.60;;
3801;SDS011;1916;51.798;12.246;2023-01-24T07:42:52;32.70;;;17.63;;
3801;SDS011;1916;51.798;12.246;2023-01-24T07:44:54;29.30;;;16.23;;
3801;SDS011;1916;51.798;12.246;2023-01-24T07:46:58;35.77;;;17.57;;
3801;SDS011;1916;51.798;12.246;2023-01-24T07:49:00;28.53;;;16.83;;
3801;SDS011;1916;51.798;12.246;2023-01-24T07:51:03;34.10;;;17.90;;
3801;SDS011;1916;51.798;12.246;2023-01-24T07:53:05;33.90;;;18.00;;
3801;SDS011;1916;51.798;12.246;2023-01-24T07:55:07;32.50;;;17.40;;
3801;SDS011;1916;51.798;12.246;2023-01-24T07:57:10;40.33;;;18.47;;
3801;SDS011;1916;51.798;12.246;2023-01-24T07:59:12;32.40;;;16.47;;
3801;SDS011;1916;51.798;12.246;2023-01-24T08:01:19;30.53;;;18.40;;
3801;SDS011;1916;51.798;12.246;2023-01-24T08:03:21;37.33;;;19.07;;
3801;SDS011;1916;51.798;12.246;2023-01-24T08:05:24;35.83;;;17.30;;
3801;SDS011;1916;51.798;12.246;2023-01-24T08:07:26;35.70;;;19.40;;
3801;SDS011;1916;51.798;12.246;2023-01-24T08:09:28;36.63;;;18.83;;
3801;SDS011;1916;51.798;12.246;2023-01-24T08:11:30;40.20;;;19.80;;
3801;SDS011;1916;51.798;12.246;2023-01-24T08:13:32;36.20;;;18.67;;
3801;SDS011;1916;51.798;12.246;2023-01-24T08:15:34;37.97;;;19.47;;
3801;SDS011;1916;51.798;12.246;2023-01-24T08:17:36;37.43;;;17.90;;
3801;SDS011;1916;51.798;12.246;2023-01-24T08:19:39;40.40;;;20.57;;
3801;SDS011;1916;51.798;12.246;2023-01-24T08:21:57;36.90;;;18.63;;
3801;SDS011;1916;51.798;12.246;2023-01-24T08:23:59;30.77;;;19.00;;
3801;SDS011;1916;51.798;12.246;2023-01-24T08:26:02;37.97;;;18.93;;
3801;SDS011;1916;51.798;12.246;2023-01-24T08:28:04;34.13;;;17.67;;
3801;SDS011;1916;51.798;12.246;2023-01-24T08:30:07;37.93;;;21.40;;
3801;SDS011;1916;51.798;12.246;2023-01-24T08:32:12;39.60;;;19.00;;
3801;SDS011;1916;51.798;12.246;2023-01-24T08:34:14;35.57;;;18.93;;
3801;SDS011;1916;51.798;12.246;2023-01-24T08:36:16;35.20;;;18.87;;
3801;SDS011;1916;51.798;12.246;2023-01-24T08:38:18;33.17;;;18.87;;
3801;SDS011;1916;51.798;12.246;2023-01-24T08:40:20;38.03;;;20.17;;
3801;SDS011;1916;51.798;12.246;2023-01-24T08:42:23;36.40;;;20.70;;
3801;SDS011;1916;51.798;12.246;2023-01-24T08:44:27;35.33;;;18.53;;
3801;SDS011;1916;51.798;12.246;2023-01-24T08:46:29;37.47;;;21.07;;
3801;SDS011;1916;51.798;12.246;2023-01-24T08:48:32;33.20;;;17.30;;
3801;SDS011;1916;51.798;12.246;2023-01-24T08:50:34;38.43;;;20.70;;
3801;SDS011;1916;51.798;12.246;2023-01-24T08:52:36;36.67;;;19.43;;
3801;SDS011;1916;51.798;12.246;2023-01-24T08:54:38;36.10;;;18.47;;
3801;SDS011;1916;51.798;12.246;2023-01-24T08:56:40;37.07;;;19.43;;
3801;SDS011;1916;51.798;12.246;2023-01-24T08:58:42;34.30;;;19.10;;
3801;SDS011;1916;51.798;12.246;2023-01-24T09:00:44;31.50;;;19.10;;
3801;SDS011;1916;51.798;12.246;2023-01-24T09:02:46;31.77;;;17.70;;
3801;SDS011;1916;51.798;12.246;2023-01-24T09:04:48;34.00;;;18.73;;
3801;SDS011;1916;51.798;12.246;2023-01-24T09:06:50;34.43;;;20.80;;
3801;SDS011;1916;51.798;12.246;2023-01-24T09:08:53;37.00;;;18.00;;
3801;SDS011;1916;51.798;12.246;2023-01-24T09:10:59;33.93;;;19.47;;
3801;SDS011;1916;51.798;12.246;2023-01-24T09:13:02;39.00;;;18.70;;
3801;SDS011;1916;51.798;12.246;2023-01-24T09:15:05;45.50;;;19.27;;
3801;SDS011;1916;51.798;12.246;2023-01-24T09:17:09;44.13;;;20.83;;
3801;SDS011;1916;51.798;12.246;2023-01-24T09:19:11;35.03;;;19.43;;
3801;SDS011;1916;51.798;12.246;2023-01-24T09:21:14;35.10;;;17.40;;
3801;SDS011;1916;51.798;12.246;2023-01-24T09:23:16;33.07;;;17.77;;
3801;SDS011;1916;51.798;12.246;2023-01-24T09:25:18;35.83;;;17.90;;
3801;SDS011;1916;51.798;12.246;2023-01-24T09:27:20;36.43;;;18.00;;
3801;SDS011;1916;51.798;12.246;2023-01-24T09:29:22;29.23;;;15.87;;
3801;SDS011;1916;51.798;12.246;2023-01-24T09:31:24;32.83;;;16.67;;
3801;SDS011;1916;51.798;12.246;2023-01-24T09:33:26;31.23;;;16.57;;
3801;SDS011;1916;51.798;12.246;2023-01-24T09:35:29;28.47;;;16.53;;
3801;SDS011;1916;51.798;12.246;2023-01-24T09:37:31;32.40;;;17.40;;
3801;SDS011;1916;51.798;12.246;2023-01-24T09:39:33;32.50;;;18.70;;
3801;SDS011;1916;51.798;12.246;2023-01-24T09:43:58;30.10;;;16.27;;
3801;SDS011;1916;51.798;12.246;2023-01-24T09:46:04;34.43;;;17.67;;
3801;SDS011;1916;51.798;12.246;2023-01-24T09:48:18;40.67;;;17.77;;
3801;SDS011;1916;51.798;12.246;2023-01-24T09:50:22;26.57;;;16.47;;
3801;SDS011;1916;51.798;12.246;2023-01-24T09:52:50;30.60;;;17.17;;
3801;SDS011;1916;51.798;12.246;2023-01-24T09:54:53;37.33;;;17.50;;
3801;SDS011;1916;51.798;12.246;2023-01-24T09:56:59;33.73;;;18.67;;
3801;SDS011;1916;51.798;12.246;2023-01-24T10:01:13;30.80;;;16.57;;
3801;SDS011;1916;51.798;12.246;2023-01-24T10:03:19;31.10;;;17.10;;
3801;SDS011;1916;51.798;12.246;2023-01-24T10:05:39;40.37;;;17.67;;
3801;SDS011;1916;51.798;12.246;2023-01-24T10:08:19;45.53;;;21.00;;
3801;SDS011;1916;51.798;12.246;2023-01-24T10:10:20;30.87;;;17.10;;
3801;SDS011;1916;51.798;12.246;2023-01-24T10:15:08;31.90;;;16.33;;
3801;SDS011;1916;51.798;12.246;2023-01-24T10:24:39;30.60;;;15.60;;
3801;SDS011;1916;51.798;12.246;2023-01-24T10:26:47;28.47;;;15.57;;
3801;SDS011;1916;51.798;12.246;2023-01-24T10:28:51;28.80;;;14.50;;
3801;SDS011;1916;51.798;12.246;2023-01-24T10:31:05;29.30;;;18.07;;
3801;SDS011;1916;51.798;12.246;2023-01-24T10:33:16;27.30;;;16.53;;
3801;SDS011;1916;51.798;12.246;2023-01-24T10:35:25;30.13;;;14.80;;
3801;SDS011;1916;51.798;12.246;2023-01-24T10:37:31;28.43;;;15.30;;
3801;SDS011;1916;51.798;12.246;2023-01-24T10:39:36;32.13;;;15.70;;
3801;SDS011;1916;51.798;12.246;2023-01-24T10:41:38;30.10;;;15.83;;
3801;SDS011;1916;51.798;12.246;2023-01-24T10:43:41;25.63;;;14.80;;
3801;SDS011;1916;51.798;12.246;2023-01-24T10:45:50;26.00;;;13.90;;
3801;SDS011;1916;51.798;12.246;2023-01-24T10:47:57;27.77;;;15.87;;
3801;SDS011;1916;51.798;12.246;2023-01-24T10:50:04;27.93;;;14.57;;
3801;SDS011;1916;51.798;12.246;2023-01-24T10:54:19;26.20;;;15.07;;
3801;SDS011;1916;51.798;12.246;2023-01-24T10:56:24;26.00;;;14.13;;
3801;SDS011;1916;51.798;12.246;2023-01-24T11:00:41;29.50;;;14.83;;
3801;SDS011;1916;51.798;12.246;2023-01-24T11:02:49;28.13;;;15.13;;
3801;SDS011;1916;51.798;12.246;2023-01-24T11:04:55;24.40;;;15.43;;
3801;SDS011;1916;51.798;12.246;2023-01-24T11:07:01;21.50;;;13.30;;
3801;SDS011;1916;51.798;12.246;2023-01-24T11:09:09;27.53;;;13.90;;
3801;SDS011;1916;51.798;12.246;2023-01-24T11:11:31;24.93;;;12.80;;
3801;SDS011;1916;51.798;12.246;2023-01-24T11:15:45;26.23;;;15.20;;
3801;SDS011;1916;51.798;12.246;2023-01-24T11:17:59;32.13;;;14.73;;
3801;SDS011;1916;51.798;12.246;2023-01-24T11:20:19;25.73;;;14.70;;
3801;SDS011;1916;51.798;12.246;2023-01-24T11:22:27;19.73;;;12.73;;
3801;SDS011;1916;51.798;12.246;2023-01-24T11:24:41;22.87;;;12.83;;
3801;SDS011;1916;51.798;12.246;2023-01-24T11:27:04;21.70;;;12.77;;
3801;SDS011;1916;51.798;12.246;2023-01-24T11:29:15;24.87;;;13.77;;
3801;SDS011;1916;51.798;12.246;2023-01-24T11:31:22;18.67;;;12.23;;
3801;SDS011;1916;51.798;12.246;2023-01-24T11:33:33;20.00;;;13.60;;
3801;SDS011;1916;51.798;12.246;2023-01-24T11:35:55;24.67;;;12.37;;
3801;SDS011;1916;51.798;12.246;2023-01-24T11:47:15;21.00;;;12.00;;
3801;SDS011;1916;51.798;12.246;2023-01-24T11:58:47;21.43;;;12.30;;
3801;SDS011;1916;51.798;12.246;2023-01-24T12:03:34;19.70;;;12.30;;
3801;SDS011;1916;51.798;12.246;2023-01-24T12:07:59;20.27;;;11.87;;
3801;SDS011;1916;51.798;12.246;2023-01-24T12:10:17;20.77;;;12.83;;
3801;SDS011;1916;51.798;12.246;2023-01-24T12:12:31;20.70;;;12.50;;
3801;SDS011;1916;51.798;12.246;2023-01-24T12:22:30;16.87;;;11.93;;
3801;SDS011;1916;51.798;12.246;2023-01-24T12:24:34;15.17;;;11.30;;
3801;SDS011;1916;51.798;12.246;2023-01-24T12:26:39;18.90;;;10.90;;
3801;SDS011;1916;51.798;12.246;2023-01-24T12:30:51;19.47;;;11.37;;
3801;SDS011;1916;51.798;12.246;2023-01-24T12:33:04;18.63;;;11.67;;
3801;SDS011;1916;51.798;12.246;2023-01-24T12:35:32;19.57;;;11.17;;
3801;SDS011;1916;51.798;12.246;2023-01-24T12:37:40;19.23;;;13.40;;
3801;SDS011;1916;51.798;12.246;2023-01-24T12:40:07;19.40;;;10.53;;
3801;SDS011;1916;51.798;12.246;2023-01-24T12:42:14;18.77;;;11.33;;
3801;SDS011;1916;51.798;12.246;2023-01-24T12:44:31;18.40;;;13.27;;
3801;SDS011;1916;51.798;12.246;2023-01-24T12:46:37;16.70;;;11.70;;
3801;SDS011;1916;51.798;12.246;2023-01-24T12:48:48;17.07;;;10.33;;
3801;SDS011;1916;51.798;12.246;2023-01-24T12:51:03;17.33;;;11.27;;
3801;SDS011;1916;51.798;12.246;2023-01-24T12:55:39;16.73;;;10.90;;
3801;SDS011;1916;51.798;12.246;2023-01-24T12:57:49;19.80;;;11.10;;
3801;SDS011;1916;51.798;12.246;2023-01-24T12:59:53;16.20;;;10.67;;
3801;SDS011;1916;51.798;12.246;2023-01-24T13:04:12;14.40;;;10.20;;
3801;SDS011;1916;51.798;12.246;2023-01-24T13:06:51;17.97;;;11.97;;
3801;SDS011;1916;51.798;12.246;2023-01-24T13:11:23;19.60;;;11.00;;
3801;SDS011;1916;51.798;12.246;2023-01-24T13:13:49;16.83;;;9.80;;
3801;SDS011;1916;51.798;12.246;2023-01-24T13:16:05;16.63;;;10.40;;
3801;SDS011;1916;51.798;12.246;2023-01-24T13:25:47;18.40;;;10.50;;
3801;SDS011;1916;51.798;12.246;2023-01-24T13:30:46;18.77;;;12.07;;
3801;SDS011;1916;51.798;12.246;2023-01-24T13:32:51;23.67;;;11.80;;
3801;SDS011;1916;51.798;12.246;2023-01-24T13:34:56;20.10;;;12.70;;
3801;SDS011;1916;51.798;12.246;2023-01-24T13:36:59;19.60;;;10.33;;
3801;SDS011;1916;51.798;12.246;2023-01-24T13:39:02;17.83;;;10.60;;
3801;SDS011;1916;51.798;12.246;2023-01-24T13:41:07;27.33;;;12.70;;
3801;SDS011;1916;51.798;12.246;2023-01-24T13:44:03;19.43;;;11.70;;
3801;SDS011;1916;51.798;12.246;2023-01-24T13:45:57;15.30;;;11.50;;
3801;SDS011;1916;51.798;12.246;2023-01-24T13:48:03;18.30;;;11.77;;